createdAt,value
2022-09-01T00:02:46.788Z,18.20
2022-09-01T00:05:55.073Z,18.13
2022-09-01T00:09:01.933Z,18.14
2022-09-01T00:12:07.128Z,18.08
2022-09-01T00:15:11.479Z,17.91
2022-09-01T00:18:15.658Z,17.88
2022-09-01T00:21:20.897Z,17.86
2022-09-01T00:24:26.064Z,17.83
2022-09-01T00:27:31.015Z,17.81
2022-09-01T00:30:33.892Z,17.74
2022-09-01T00:33:38.557Z,17.66
2022-09-01T00:36:41.537Z,17.59
2022-09-01T00:39:44.027Z,17.54
2022-09-01T00:42:48.857Z,17.45
2022-09-01T00:45:52.376Z,17.43
2022-09-01T00:49:00.999Z,17.41
2022-09-01T00:52:11.476Z,17.29
2022-09-01T00:55:34.603Z,17.30
2022-09-01T00:58:38.287Z,17.32
2022-09-01T01:01:41.026Z,17.24
2022-09-01T01:04:44.037Z,17.17
2022-09-01T01:07:47.967Z,17.18
2022-09-01T01:10:50.512Z,17.15
2022-09-01T01:13:57.192Z,17.13
2022-09-01T01:17:00.995Z,17.19
2022-09-01T01:20:25.996Z,17.21
2022-09-01T01:23:43.541Z,17.27
2022-09-01T01:26:47.453Z,17.14
2022-09-01T01:29:52.147Z,17.12
2022-09-01T01:32:57.854Z,17.11
2022-09-01T01:36:01.907Z,17.16
2022-09-01T01:39:07.518Z,17.16
2022-09-01T01:42:12.255Z,17.18
2022-09-01T01:45:17.755Z,17.25
2022-09-01T01:48:23.879Z,17.20
2022-09-01T01:51:26.769Z,17.25
2022-09-01T01:54:31.320Z,17.16
2022-09-01T01:57:35.462Z,17.21
2022-09-01T02:00:38.579Z,17.21
2022-09-01T02:03:41.245Z,17.27
2022-09-01T02:06:47.901Z,17.28
2022-09-01T02:09:50.880Z,17.25
2022-09-01T02:12:53.374Z,17.31
2022-09-01T02:15:58.197Z,17.29
2022-09-01T02:19:02.313Z,17.16
2022-09-01T02:22:05.089Z,17.26
2022-09-01T02:25:08.082Z,17.24
2022-09-01T02:28:15.806Z,17.23
2022-09-01T02:31:20.012Z,17.16
2022-09-01T02:34:24.818Z,17.05
2022-09-01T02:37:27.608Z,17.04
2022-09-01T02:40:31.649Z,17.08
2022-09-01T02:43:34.173Z,16.97
2022-09-01T02:46:38.211Z,16.93
2022-09-01T02:49:40.699Z,16.83
2022-09-01T02:52:46.195Z,16.83
2022-09-01T02:55:48.703Z,16.80
2022-09-01T02:58:51.890Z,16.80
2022-09-01T03:01:55.171Z,16.77
2022-09-01T03:04:58.045Z,16.75
2022-09-01T03:08:03.555Z,16.68
2022-09-01T03:11:12.975Z,16.62
2022-09-01T03:14:17.000Z,16.54
2022-09-01T03:17:19.709Z,16.52
2022-09-01T03:20:22.253Z,16.57
2022-09-01T03:23:25.430Z,16.57
2022-09-01T03:26:27.897Z,16.52
2022-09-01T03:29:30.970Z,16.46
2022-09-01T03:32:33.543Z,16.45
2022-09-01T03:35:36.693Z,16.50
2022-09-01T03:38:39.103Z,16.53
2022-09-01T03:41:42.835Z,16.54
2022-09-01T03:44:45.475Z,16.53
2022-09-01T03:47:51.103Z,16.54
2022-09-01T03:50:53.587Z,16.53
2022-09-01T03:53:59.138Z,16.54
2022-09-01T03:57:05.959Z,16.54
2022-09-01T04:00:13.625Z,16.54
2022-09-01T04:03:28.986Z,16.73
2022-09-01T04:06:34.237Z,16.82
2022-09-01T04:09:37.176Z,16.71
2022-09-01T04:12:39.968Z,16.81
2022-09-01T04:15:42.773Z,16.75
2022-09-01T04:18:48.967Z,16.68
2022-09-01T04:21:55.221Z,16.52
2022-09-01T04:24:59.216Z,16.44
2022-09-01T04:28:03.711Z,16.42
2022-09-01T04:31:14.884Z,16.44
2022-09-01T04:34:17.388Z,16.40
2022-09-01T04:37:21.970Z,16.32
2022-09-01T04:40:27.521Z,16.24
2022-09-01T04:43:30.363Z,16.27
2022-09-01T04:46:39.093Z,16.27
2022-09-01T04:49:43.470Z,16.20
2022-09-01T04:52:47.719Z,16.18
2022-09-01T04:55:54.725Z,16.17
2022-09-01T04:58:57.349Z,16.17
2022-09-01T05:02:00.815Z,16.04
2022-09-01T05:05:03.510Z,16.05
2022-09-01T05:08:08.008Z,16.03
2022-09-01T05:11:11.419Z,16.04
2022-09-01T05:14:19.079Z,16.00
2022-09-01T05:17:21.773Z,15.96
2022-09-01T05:20:25.109Z,15.93
2022-09-01T05:23:28.889Z,15.95
2022-09-01T05:26:34.661Z,15.95
2022-09-01T05:29:38.515Z,15.99
2022-09-01T05:32:41.452Z,16.03
2022-09-01T05:35:56.750Z,16.04
2022-09-01T05:39:00.749Z,16.08
2022-09-01T05:42:04.691Z,16.04
2022-09-01T05:45:10.838Z,16.00
2022-09-01T05:48:16.014Z,15.95
2022-09-01T05:51:43.389Z,15.90
2022-09-01T05:54:48.042Z,15.92
2022-09-01T05:57:53.990Z,15.96
2022-09-01T06:00:58.450Z,15.88
2022-09-01T06:04:04.711Z,15.85
2022-09-01T06:07:11.856Z,15.87
2022-09-01T06:10:17.583Z,15.88
2022-09-01T06:13:21.892Z,15.95
2022-09-01T06:16:29.781Z,15.95
2022-09-01T06:19:37.129Z,15.96
2022-09-01T06:22:41.131Z,15.98
2022-09-01T06:25:46.832Z,16.03
2022-09-01T06:28:55.043Z,16.09
2022-09-01T06:31:58.889Z,16.08
2022-09-01T06:35:03.394Z,16.04
2022-09-01T06:38:10.204Z,16.02
2022-09-01T06:41:13.219Z,16.08
2022-09-01T06:44:22.271Z,16.10
2022-09-01T06:47:28.650Z,16.15
2022-09-01T06:53:57.021Z,16.26
2022-09-01T06:58:03.519Z,16.32
2022-09-01T07:00:28.765Z,16.38
2022-09-01T07:03:33.083Z,16.47
2022-09-01T07:10:17.745Z,16.58
2022-09-01T07:13:23.964Z,16.66
2022-09-01T07:16:33.319Z,16.72
2022-09-01T07:19:53.055Z,16.73
2022-09-01T07:23:06.422Z,16.83
2022-09-01T07:26:10.156Z,16.84
2022-09-01T07:29:14.135Z,16.77
2022-09-01T07:36:25.755Z,16.80
2022-09-01T07:45:59.734Z,17.16
2022-09-01T07:49:29.658Z,17.33
2022-09-01T07:52:26.771Z,17.37
2022-09-01T07:55:31.937Z,17.39
2022-09-01T07:58:38.317Z,17.23
2022-09-01T08:01:42.841Z,17.30
2022-09-01T08:04:46.430Z,17.28
2022-09-01T08:07:52.581Z,17.33
2022-09-01T08:11:04.329Z,17.39
2022-09-01T08:14:07.823Z,17.40
2022-09-01T08:17:34.375Z,17.45
2022-09-01T08:20:37.731Z,17.49
2022-09-01T08:23:44.253Z,17.53
2022-09-01T08:26:48.828Z,17.67
2022-09-01T08:29:51.862Z,17.67
2022-09-01T08:32:54.911Z,17.59
2022-09-01T08:35:57.771Z,17.61
2022-09-01T08:39:01.272Z,17.76
2022-09-01T08:42:10.119Z,17.82
2022-09-01T08:45:33.192Z,18.10
2022-09-01T08:52:17.437Z,18.50
2022-09-01T08:55:27.394Z,18.65
2022-09-01T08:58:32.582Z,18.75
2022-09-01T09:02:01.848Z,18.85
2022-09-01T09:05:27.970Z,18.94
2022-09-01T09:08:57.990Z,19.03
2022-09-01T09:12:22.589Z,19.05
2022-09-01T09:15:33.912Z,19.21
2022-09-01T09:18:54.925Z,19.18
2022-09-01T09:22:01.218Z,19.13
2022-09-01T09:25:08.297Z,19.20
2022-09-01T09:28:11.182Z,19.44
2022-09-01T09:31:51.490Z,19.51
2022-09-01T09:34:54.903Z,19.43
2022-09-01T09:38:21.556Z,19.36
2022-09-01T09:41:27.292Z,19.46
2022-09-01T09:44:32.818Z,19.64
2022-09-01T09:47:45.340Z,19.64
2022-09-01T09:50:48.067Z,19.81
2022-09-01T09:53:54.277Z,20.04
2022-09-01T09:57:08.994Z,20.21
2022-09-01T10:00:32.635Z,20.23
2022-09-01T10:03:42.456Z,20.27
2022-09-01T10:06:46.851Z,20.27
2022-09-01T10:09:51.208Z,20.12
2022-09-01T10:12:55.398Z,20.26
2022-09-01T10:16:05.610Z,20.27
2022-09-01T10:19:13.797Z,20.52
2022-09-01T10:22:20.353Z,20.64
2022-09-01T10:25:29.222Z,20.71
2022-09-01T10:28:33.880Z,20.68
2022-09-01T10:31:37.257Z,20.54
2022-09-01T10:34:42.107Z,20.61
2022-09-01T10:37:46.015Z,20.60
2022-09-01T10:41:07.185Z,20.78
2022-09-01T10:44:19.342Z,20.94
2022-09-01T10:47:33.905Z,21.17
2022-09-01T10:50:36.775Z,21.27
2022-09-01T10:53:42.405Z,21.45
2022-09-01T10:56:52.358Z,21.62
2022-09-01T10:59:58.100Z,21.67
2022-09-01T11:10:52.927Z,22.22
2022-09-01T11:13:58.944Z,22.72
2022-09-01T11:17:29.367Z,22.58
2022-09-01T11:20:36.483Z,23.05
2022-09-01T11:23:39.387Z,23.29
2022-09-01T11:26:47.457Z,22.95
2022-09-01T11:30:07.615Z,22.45
2022-09-01T11:33:16.275Z,22.16
2022-09-01T11:36:19.725Z,22.55
2022-09-01T11:39:31.266Z,22.95
2022-09-01T11:42:45.768Z,23.06
2022-09-01T11:46:06.977Z,22.73
2022-09-01T11:49:24.352Z,23.23
2022-09-01T11:52:30.582Z,23.12
2022-09-01T11:55:36.177Z,23.22
2022-09-01T11:58:39.353Z,23.40
2022-09-01T12:01:41.750Z,23.23
2022-09-01T12:04:44.360Z,23.12
2022-09-01T12:07:47.490Z,23.21
2022-09-01T12:10:50.185Z,23.26
2022-09-01T12:14:10.877Z,23.06
2022-09-01T12:17:20.901Z,23.43
2022-09-01T12:20:31.141Z,23.82
2022-09-01T12:23:40.325Z,23.99
2022-09-01T12:26:44.106Z,24.13
2022-09-01T12:29:50.123Z,24.45
2022-09-01T12:33:22.845Z,24.58
2022-09-01T12:36:24.088Z,24.79
2022-09-01T12:39:33.919Z,24.60
2022-09-01T12:42:41.471Z,24.45
2022-09-01T12:45:47.815Z,23.98
2022-09-01T12:48:50.706Z,23.94
2022-09-01T12:52:26.577Z,24.10
2022-09-01T12:59:36.055Z,24.35
2022-09-01T13:03:18.129Z,24.31
2022-09-01T13:06:20.470Z,24.28
2022-09-01T13:09:23.227Z,24.19
2022-09-01T13:12:25.652Z,24.08
2022-09-01T13:15:28.678Z,24.04
2022-09-01T13:18:31.251Z,24.08
2022-09-01T13:21:36.474Z,24.16
2022-09-01T13:24:40.518Z,24.14
2022-09-01T13:27:44.779Z,24.13
2022-09-01T13:31:28.729Z,24.04
2022-09-01T13:34:23.474Z,24.23
2022-09-01T13:37:26.697Z,24.38
2022-09-01T13:40:29.537Z,24.51
2022-09-01T13:43:32.291Z,24.50
2022-09-01T13:46:35.571Z,24.53
2022-09-01T13:49:42.626Z,24.48
2022-09-01T13:52:55.128Z,24.58
2022-09-01T13:59:00.954Z,24.30
2022-09-01T14:02:04.572Z,24.42
2022-09-01T14:05:07.958Z,24.37
2022-09-01T14:08:11.148Z,24.25
2022-09-01T14:11:19.855Z,24.36
2022-09-01T14:14:22.877Z,24.28
2022-09-01T14:17:26.354Z,24.45
2022-09-01T14:20:36.679Z,24.45
2022-09-01T14:23:39.994Z,24.42
2022-09-01T14:26:42.414Z,24.23
2022-09-01T14:29:54.913Z,24.15
2022-09-01T14:32:59.517Z,24.05
2022-09-01T14:36:03.279Z,23.79
2022-09-01T14:39:05.792Z,23.93
2022-09-01T14:42:11.869Z,24.13
2022-09-01T14:45:18.466Z,24.36
2022-09-01T14:48:21.401Z,24.34
2022-09-01T14:52:10.464Z,24.41
2022-09-01T14:54:50.565Z,24.31
2022-09-01T14:57:54.574Z,24.21
2022-09-01T15:01:03.586Z,24.27
2022-09-01T15:04:10.306Z,24.45
2022-09-01T15:07:13.460Z,24.50
2022-09-01T15:10:24.911Z,24.25
2022-09-01T15:13:28.258Z,24.00
2022-09-01T15:16:30.671Z,23.96
2022-09-01T15:19:33.442Z,23.96
2022-09-01T15:22:35.926Z,23.93
2022-09-01T15:25:38.970Z,23.98
2022-09-01T15:28:41.565Z,24.21
2022-09-01T15:31:44.986Z,24.25
2022-09-01T15:34:47.358Z,24.22
2022-09-01T15:37:52.292Z,24.23
